createdAt,value
2017-07-22T00:01:15.774Z,95434
2017-07-22T00:03:50.592Z,95446
2017-07-22T00:06:25.479Z,95463
2017-07-22T00:09:01.240Z,95475
2017-07-22T00:11:36.092Z,95481
2017-07-22T00:14:14.223Z,95493
2017-07-22T00:16:49.011Z,95490
2017-07-22T00:19:23.954Z,95493
2017-07-22T00:21:58.858Z,95503
2017-07-22T00:24:33.744Z,95495
2017-07-22T00:27:08.563Z,95498
2017-07-22T00:29:43.511Z,95501
2017-07-22T00:32:19.211Z,95501
2017-07-22T00:34:54.175Z,95497
2017-07-22T00:37:29.003Z,95482
2017-07-22T00:40:14.041Z,95476
2017-07-22T00:42:48.965Z,95478
2017-07-22T00:45:23.959Z,95485
2017-07-22T00:47:58.853Z,95476
2017-07-22T00:50:33.675Z,95471
2017-07-22T00:53:08.491Z,95463
2017-07-22T00:55:43.475Z,95454
2017-07-22T00:58:18.391Z,95450
2017-07-22T01:00:53.419Z,95458
2017-07-22T01:03:28.355Z,95458
2017-07-22T01:06:03.376Z,95459
2017-07-22T01:08:39.141Z,95379
2017-07-22T01:11:14.163Z,95453
2017-07-22T01:13:49.907Z,95454
2017-07-22T01:16:24.928Z,95460
2017-07-22T01:18:59.986Z,95460
2017-07-22T01:21:34.779Z,95466
2017-07-22T01:24:10.567Z,95460
2017-07-22T01:26:45.580Z,95471
2017-07-22T01:29:20.494Z,95460
2017-07-22T01:31:55.452Z,95454
2017-07-22T01:34:30.451Z,95451
2017-07-22T01:37:05.360Z,95448
2017-07-22T01:39:40.318Z,95454
2017-07-22T01:42:15.267Z,95449
2017-07-22T01:44:50.313Z,95447
2017-07-22T01:47:25.296Z,95452
2017-07-22T01:50:00.073Z,95454
2017-07-22T01:52:35.054Z,95445
2017-07-22T01:55:10.020Z,95458
2017-07-22T01:57:45.015Z,95453
2017-07-22T02:00:24.636Z,95463
2017-07-22T02:02:59.585Z,95450
2017-07-22T02:05:34.597Z,95448
2017-07-22T02:08:09.413Z,95458
2017-07-22T02:10:44.355Z,95468
2017-07-22T02:13:19.202Z,95463
2017-07-22T02:15:54.109Z,95467
2017-07-22T02:18:29.679Z,95466
2017-07-22T02:21:04.599Z,95493
2017-07-22T02:23:39.542Z,95469
2017-07-22T02:26:14.519Z,95471
2017-07-22T02:28:50.141Z,95469
2017-07-22T02:31:25.061Z,95477
2017-07-22T02:34:00.069Z,95473
2017-07-22T02:36:34.922Z,95473
2017-07-22T02:39:09.728Z,95470
2017-07-22T02:41:45.479Z,95477
2017-07-22T02:44:20.451Z,95465
2017-07-22T02:46:56.176Z,95469
2017-07-22T02:49:31.842Z,95477
2017-07-22T02:52:06.834Z,95483
2017-07-22T02:54:42.611Z,95478
2017-07-22T02:57:17.520Z,95478
2017-07-22T02:59:52.373Z,95479
2017-07-22T03:02:27.348Z,95484
2017-07-22T03:05:02.418Z,95483
2017-07-22T03:07:37.446Z,95487
2017-07-22T03:10:12.306Z,95488
2017-07-22T03:12:47.228Z,95484
2017-07-22T03:15:22.143Z,95484
2017-07-22T03:17:57.051Z,95491
2017-07-22T03:20:32.856Z,95489
2017-07-22T03:23:07.731Z,95491
2017-07-22T03:25:42.726Z,95494
2017-07-22T03:28:17.655Z,95500
2017-07-22T03:30:53.397Z,95498
2017-07-22T03:33:28.364Z,95498
2017-07-22T03:36:03.187Z,95509
2017-07-22T03:38:38.154Z,95491
2017-07-22T03:41:13.140Z,95504
2017-07-22T03:43:48.148Z,95508
2017-07-22T03:46:23.147Z,95508
2017-07-22T03:48:58.096Z,95508
2017-07-22T03:51:32.929Z,95506
2017-07-22T03:54:07.932Z,95504
2017-07-22T03:56:42.720Z,95508
2017-07-22T03:59:17.653Z,95505
2017-07-22T04:01:52.498Z,95511
2017-07-22T04:04:27.490Z,95507
2017-07-22T04:07:02.451Z,95515
2017-07-22T04:09:37.354Z,95515
2017-07-22T04:12:12.171Z,95508
2017-07-22T04:14:47.207Z,95513
2017-07-22T04:17:22.044Z,95520
2017-07-22T04:19:57.782Z,95523
2017-07-22T04:22:32.724Z,95529
2017-07-22T04:25:07.699Z,95532
2017-07-22T04:27:42.679Z,95537
2017-07-22T04:30:17.695Z,95541
2017-07-22T04:32:52.682Z,95540
2017-07-22T04:35:27.632Z,95540
2017-07-22T04:38:02.638Z,95551
2017-07-22T04:40:37.564Z,95549
2017-07-22T04:43:12.436Z,95552
2017-07-22T04:45:47.415Z,95560
2017-07-22T04:48:22.510Z,95562
2017-07-22T04:50:57.372Z,95555
2017-07-22T04:53:32.234Z,95561
2017-07-22T04:56:07.963Z,95560
2017-07-22T04:58:42.945Z,95561
2017-07-22T05:01:17.910Z,95567
2017-07-22T05:03:52.868Z,95565
2017-07-22T05:06:27.871Z,95570
2017-07-22T05:09:03.594Z,95570
2017-07-22T05:11:38.431Z,95576
2017-07-22T05:14:13.395Z,95582
2017-07-22T05:16:48.391Z,95583
2017-07-22T05:19:23.336Z,95585
2017-07-22T05:21:58.178Z,95583
2017-07-22T05:24:33.143Z,95591
2017-07-22T05:27:08.042Z,95589
2017-07-22T05:29:43.742Z,95581
2017-07-22T05:32:18.679Z,95591
2017-07-22T05:34:53.579Z,95590
2017-07-22T05:37:28.439Z,95579
2017-07-22T05:40:03.337Z,95594
2017-07-22T05:42:38.269Z,95596
2017-07-22T05:45:13.216Z,95601
2017-07-22T05:47:48.171Z,95603
2017-07-22T05:50:22.984Z,95519
2017-07-22T05:52:57.823Z,95608
2017-07-22T05:55:32.788Z,95607
2017-07-22T05:58:07.742Z,95612
2017-07-22T06:00:42.736Z,95614
2017-07-22T06:03:17.631Z,95620
2017-07-22T06:05:52.607Z,95626
2017-07-22T06:08:27.491Z,95622
2017-07-22T06:11:03.156Z,95562
2017-07-22T06:13:37.959Z,95634
2017-07-22T06:16:12.920Z,95637
2017-07-22T06:18:47.940Z,95631
2017-07-22T06:21:22.757Z,95638
2017-07-22T06:23:57.684Z,95641
2017-07-22T06:26:32.623Z,95641
2017-07-22T06:29:07.471Z,95641
2017-07-22T06:31:42.387Z,95643
2017-07-22T06:34:17.395Z,95649
2017-07-22T06:36:52.252Z,95651
2017-07-22T06:39:27.272Z,95646
2017-07-22T06:42:02.189Z,95652
2017-07-22T06:44:37.022Z,95650
2017-07-22T06:47:12.011Z,95654
2017-07-22T06:49:47.000Z,95655
2017-07-22T06:52:28.428Z,95649
2017-07-22T06:55:03.472Z,95647
2017-07-22T06:57:40.639Z,95656
2017-07-22T07:00:15.431Z,95662
2017-07-22T07:02:51.232Z,95660
2017-07-22T07:05:26.172Z,95664
2017-07-22T07:08:01.156Z,95661
2017-07-22T07:10:47.708Z,95655
2017-07-22T07:13:23.173Z,95651
2017-07-22T07:15:58.187Z,95650
2017-07-22T07:18:33.106Z,95655
2017-07-22T07:21:07.981Z,95649
2017-07-22T07:23:42.935Z,95657
2017-07-22T07:26:18.597Z,95660
2017-07-22T07:28:53.405Z,95664
2017-07-22T07:31:28.317Z,95661
2017-07-22T07:34:03.266Z,95658
2017-07-22T07:36:38.208Z,95659
2017-07-22T07:39:14.199Z,95657
2017-07-22T07:41:49.215Z,95663
2017-07-22T07:44:24.063Z,95657
2017-07-22T07:46:59.001Z,95668
2017-07-22T07:49:33.982Z,95657
2017-07-22T07:52:08.924Z,95668
2017-07-22T07:54:43.898Z,95659
2017-07-22T07:57:20.752Z,95660
2017-07-22T07:59:55.809Z,95662
2017-07-22T08:02:30.605Z,95659
2017-07-22T08:05:09.884Z,95666
2017-07-22T08:07:44.912Z,95664
2017-07-22T08:10:19.952Z,95658
2017-07-22T08:12:59.360Z,95533
2017-07-22T08:15:34.310Z,95656
2017-07-22T08:18:11.925Z,95659
2017-07-22T08:20:46.835Z,95659
2017-07-22T08:23:21.670Z,95664
2017-07-22T08:25:57.288Z,95659
2017-07-22T08:28:32.205Z,95655
2017-07-22T08:31:07.233Z,95663
2017-07-22T08:33:42.071Z,95650
2017-07-22T08:36:17.038Z,95664
2017-07-22T08:38:51.959Z,95664
2017-07-22T08:41:26.796Z,95666
2017-07-22T08:44:01.724Z,95664
2017-07-22T08:46:36.696Z,95664
2017-07-22T08:49:11.500Z,95682
2017-07-22T08:51:46.315Z,95674
2017-07-22T08:54:21.448Z,95685
2017-07-22T08:56:56.472Z,95683
2017-07-22T08:59:34.997Z,95681
2017-07-22T09:02:09.959Z,95686
2017-07-22T09:04:44.863Z,95680
2017-07-22T09:07:19.708Z,95679
2017-07-22T09:09:54.500Z,95681
2017-07-22T09:12:29.367Z,95701
2017-07-22T09:15:04.288Z,95684
2017-07-22T09:17:39.243Z,95683
2017-07-22T09:20:14.194Z,95685
2017-07-22T09:22:50.112Z,95688
2017-07-22T09:25:27.796Z,95687
2017-07-22T09:28:02.799Z,95698
2017-07-22T09:30:37.648Z,95687
2017-07-22T09:33:12.516Z,95685
2017-07-22T09:35:47.331Z,95682
2017-07-22T09:38:22.227Z,95688
2017-07-22T09:40:58.719Z,95690
2017-07-22T09:43:33.667Z,95686
2017-07-22T09:46:08.562Z,95686
2017-07-22T09:48:43.528Z,95691
2017-07-22T09:51:18.316Z,95692
2017-07-22T09:53:53.160Z,95692
2017-07-22T09:56:28.103Z,95694
2017-07-22T09:59:06.638Z,95695
2017-07-22T10:01:41.571Z,95693
2017-07-22T10:04:16.424Z,95693
2017-07-22T10:06:51.323Z,95695
2017-07-22T10:09:27.198Z,95695
2017-07-22T10:12:02.123Z,95707
2017-07-22T10:14:36.900Z,95698
2017-07-22T10:17:11.814Z,95699
2017-07-22T10:19:47.587Z,95696
2017-07-22T10:22:22.501Z,95697
2017-07-22T10:24:57.479Z,95701
2017-07-22T10:27:32.407Z,95709
2017-07-22T10:30:07.276Z,95704
2017-07-22T10:32:42.212Z,95700
2017-07-22T10:35:17.182Z,95696
2017-07-22T10:37:51.988Z,95696
2017-07-22T10:40:27.058Z,95700
2017-07-22T10:43:02.632Z,95690
2017-07-22T10:45:37.528Z,95691
2017-07-22T10:48:12.319Z,95698
2017-07-22T10:50:47.225Z,95697
2017-07-22T10:53:22.078Z,95695
2017-07-22T10:55:57.784Z,95690
2017-07-22T10:58:32.724Z,95695
2017-07-22T11:01:07.649Z,95689
2017-07-22T11:03:42.455Z,95684
2017-07-22T11:06:17.320Z,95681
2017-07-22T11:08:52.093Z,95690
2017-07-22T11:11:26.922Z,95681
2017-07-22T11:14:01.883Z,95684
2017-07-22T11:16:36.813Z,95684
2017-07-22T11:19:11.779Z,95686
2017-07-22T11:21:46.756Z,95682
2017-07-22T11:24:22.418Z,95682
2017-07-22T11:26:58.174Z,95686
2017-07-22T11:29:33.109Z,95683
2017-07-22T11:32:08.185Z,95683
2017-07-22T11:34:43.076Z,95688
2017-07-22T11:37:18.114Z,95685
2017-07-22T11:39:53.139Z,95690
2017-07-22T11:42:28.065Z,95695
2017-07-22T11:45:02.856Z,95690
2017-07-22T11:47:37.745Z,95694
2017-07-22T11:50:12.655Z,95683
2017-07-22T11:52:47.687Z,95688
2017-07-22T11:55:22.658Z,95687
2017-07-22T11:57:57.615Z,95679
2017-07-22T12:00:32.579Z,95675
2017-07-22T12:03:07.517Z,95677
2017-07-22T12:05:48.606Z,95665
2017-07-22T12:08:23.584Z,95657
2017-07-22T12:10:58.384Z,95651
2017-07-22T12:13:33.367Z,95644
2017-07-22T12:16:08.294Z,95643
2017-07-22T12:18:43.251Z,95647
2017-07-22T12:21:18.093Z,95636
2017-07-22T12:23:52.884Z,95653
2017-07-22T12:26:27.644Z,95653
2017-07-22T12:29:02.720Z,95664
2017-07-22T12:31:37.520Z,95654
2017-07-22T12:34:12.357Z,95662
2017-07-22T12:36:47.123Z,95657
2017-07-22T12:39:22.033Z,95655
2017-07-22T12:41:56.939Z,95655
2017-07-22T12:44:32.025Z,95658
2017-07-22T12:47:06.818Z,95660
2017-07-22T12:49:41.790Z,95663
2017-07-22T12:52:18.042Z,95662
2017-07-22T12:54:58.195Z,95666
2017-07-22T12:57:33.167Z,95677
2017-07-22T13:00:12.863Z,95671
2017-07-22T13:02:47.646Z,95678
2017-07-22T13:05:22.718Z,95699
2017-07-22T13:07:57.489Z,95715
2017-07-22T13:10:32.712Z,95721
2017-07-22T13:13:07.639Z,95743
2017-07-22T13:15:42.683Z,95745
2017-07-22T13:18:18.137Z,95745
2017-07-22T13:20:54.177Z,95775
2017-07-22T13:23:29.254Z,95799
2017-07-22T13:26:04.089Z,95751
2017-07-22T13:28:38.912Z,95756
2017-07-22T13:31:16.527Z,95726
2017-07-22T13:33:51.327Z,95723
2017-07-22T13:36:26.664Z,95722
2017-07-22T13:39:01.572Z,95730
2017-07-22T13:41:37.931Z,95733
2017-07-22T13:44:12.759Z,95762
2017-07-22T13:46:47.722Z,95723
2017-07-22T13:49:22.722Z,95727
2017-07-22T13:51:58.121Z,95718
2017-07-22T13:54:33.362Z,95717
2017-07-22T13:57:08.286Z,95724
2017-07-22T13:59:43.374Z,95708
2017-07-22T14:02:18.315Z,95704
2017-07-22T14:04:54.011Z,95708
2017-07-22T14:07:28.992Z,95709
2017-07-22T14:10:03.770Z,95706
2017-07-22T14:12:38.953Z,95698
2017-07-22T14:15:13.852Z,95695
2017-07-22T14:17:48.666Z,95690
2017-07-22T14:20:23.592Z,95698
2017-07-22T14:22:58.552Z,95685
2017-07-22T14:25:33.351Z,95690
2017-07-22T14:28:08.211Z,95682
2017-07-22T14:30:43.037Z,95690
2017-07-22T14:33:17.857Z,95681
2017-07-22T14:35:53.703Z,95677
2017-07-22T14:38:29.023Z,95674
2017-07-22T14:41:04.107Z,95689
2017-07-22T14:43:38.979Z,95676
2017-07-22T14:46:39.197Z,95662
2017-07-22T14:49:14.955Z,95690
2017-07-22T14:52:01.794Z,95672
2017-07-22T14:54:37.385Z,95677
2017-07-22T14:57:14.877Z,95665
2017-07-22T14:59:49.795Z,95671
2017-07-22T15:02:24.606Z,95672
2017-07-22T15:04:59.415Z,95670
2017-07-22T15:07:34.305Z,95662
2017-07-22T15:10:09.092Z,95668
2017-07-22T15:12:43.871Z,95668
2017-07-22T15:15:18.653Z,95682
2017-07-22T15:17:58.208Z,95689
2017-07-22T15:20:33.270Z,95691
2017-07-22T15:23:08.072Z,95695
2017-07-22T15:25:43.822Z,95689
2017-07-22T15:28:22.991Z,95683
2017-07-22T15:30:57.861Z,95678
2017-07-22T15:33:32.749Z,95677
2017-07-22T15:36:08.759Z,95668
2017-07-22T15:38:45.718Z,95659
2017-07-22T15:41:20.811Z,95664
2017-07-22T15:43:55.867Z,95667
2017-07-22T15:46:30.936Z,95664
2017-07-22T15:49:05.847Z,95672
2017-07-22T15:51:40.696Z,95674
2017-07-22T15:54:15.529Z,95678
2017-07-22T15:56:51.302Z,95681
2017-07-22T15:59:27.290Z,95674
2017-07-22T16:02:02.151Z,95665
2017-07-22T16:04:37.053Z,95662
2017-07-22T16:07:11.875Z,95655
2017-07-22T16:09:46.818Z,95642
2017-07-22T16:12:21.616Z,95651
2017-07-22T16:14:56.665Z,95647
2017-07-22T16:17:32.646Z,95650
2017-07-22T16:20:07.710Z,95650
2017-07-22T16:22:42.772Z,95646
2017-07-22T16:25:17.567Z,95645
2017-07-22T16:27:52.543Z,95644
2017-07-22T16:30:28.143Z,95645
2017-07-22T16:33:03.119Z,95636
2017-07-22T16:35:37.979Z,95639
2017-07-22T16:38:12.907Z,95636
2017-07-22T16:40:47.698Z,95642
2017-07-22T16:43:22.553Z,95642
2017-07-22T16:45:57.360Z,95629
2017-07-22T16:48:33.391Z,95623
2017-07-22T16:51:08.418Z,95619
2017-07-22T16:53:43.342Z,95627
2017-07-22T16:56:18.152Z,95620
2017-07-22T16:58:53.118Z,95617
2017-07-22T17:01:27.990Z,95609
2017-07-22T17:04:03.705Z,95613
2017-07-22T17:06:39.524Z,95604
2017-07-22T17:09:14.556Z,95602
2017-07-22T17:11:55.189Z,95605
2017-07-22T17:14:30.045Z,95606
2017-07-22T17:17:04.864Z,95606
2017-07-22T17:19:42.403Z,95605
2017-07-22T17:31:54.097Z,95605
2017-07-22T17:34:38.242Z,95604
2017-07-22T17:37:15.117Z,95603
2017-07-22T17:39:51.096Z,95608
2017-07-22T17:42:25.907Z,95606
2017-07-22T17:45:00.957Z,95612
2017-07-22T17:47:35.884Z,95611
2017-07-22T17:50:11.781Z,95607
2017-07-22T17:52:52.458Z,95617
2017-07-22T17:55:35.255Z,95605
2017-07-22T17:58:13.671Z,95603
2017-07-22T18:00:48.610Z,95607
2017-07-22T18:03:23.573Z,95613
2017-07-22T18:05:58.372Z,95609
2017-07-22T18:08:33.159Z,95613
2017-07-22T18:11:08.758Z,95620
2017-07-22T18:13:43.702Z,95606
2017-07-22T18:16:18.520Z,95606
2017-07-22T18:18:53.640Z,95602
2017-07-22T18:21:28.510Z,95605
2017-07-22T18:24:03.291Z,95610
2017-07-22T18:26:38.214Z,95621
2017-07-22T18:29:13.167Z,95617
2017-07-22T18:31:47.985Z,95615
2017-07-22T18:34:22.907Z,95609
2017-07-22T18:37:08.555Z,95612
2017-07-22T18:39:43.451Z,95621
2017-07-22T18:42:24.100Z,95622
2017-07-22T18:45:04.276Z,95632
2017-07-22T18:47:39.271Z,95627
2017-07-22T18:50:46.301Z,95656
2017-07-22T18:53:23.883Z,95630
2017-07-22T18:55:58.707Z,95638
2017-07-22T18:58:34.614Z,95634
2017-07-22T19:01:20.748Z,95622
2017-07-22T19:03:55.688Z,95626
2017-07-22T19:06:34.785Z,95625
2017-07-22T19:09:10.452Z,95627
2017-07-22T19:11:47.372Z,95622
2017-07-22T19:14:26.060Z,95628
2017-07-22T19:17:00.983Z,95638
2017-07-22T19:19:35.814Z,95637
2017-07-22T19:22:10.749Z,95637
2017-07-22T19:24:46.611Z,95639
2017-07-22T19:27:28.492Z,95643
2017-07-22T19:30:04.254Z,95640
2017-07-22T19:32:40.145Z,95647
2017-07-22T19:35:17.091Z,95662
2017-07-22T19:37:52.862Z,95670
2017-07-22T19:40:27.774Z,95662
2017-07-22T19:43:14.373Z,95664
2017-07-22T19:45:51.150Z,95666
2017-07-22T19:48:26.196Z,95666
2017-07-22T19:51:01.124Z,95668
2017-07-22T19:53:37.911Z,95659
2017-07-22T19:56:12.923Z,95664
2017-07-22T19:58:48.063Z,95667
2017-07-22T20:01:22.946Z,95672
2017-07-22T20:03:58.231Z,95683
2017-07-22T20:06:33.156Z,95664
2017-07-22T20:09:09.356Z,95664
2017-07-22T20:11:44.507Z,95655
2017-07-22T20:14:19.632Z,95649
2017-07-22T20:16:56.433Z,95647
2017-07-22T20:19:31.800Z,95651
2017-07-22T20:22:07.788Z,95648
2017-07-22T20:24:43.539Z,95654
2017-07-22T20:27:18.766Z,95640
2017-07-22T20:29:53.806Z,95647
2017-07-22T20:32:29.116Z,95639
2017-07-22T20:35:04.293Z,95635
2017-07-22T20:37:48.776Z,95632
2017-07-22T20:40:23.947Z,95639
2017-07-22T20:42:59.432Z,95622
2017-07-22T20:45:34.888Z,95627
2017-07-22T20:48:09.776Z,95628
2017-07-22T20:50:45.299Z,95631
2017-07-22T20:53:24.630Z,95615
2017-07-22T20:55:59.553Z,95370
2017-07-22T20:58:34.701Z,95623
2017-07-22T21:01:09.896Z,95632
2017-07-22T21:03:45.291Z,95635
2017-07-22T21:06:20.684Z,95630
2017-07-22T21:08:56.767Z,95619
2017-07-22T21:11:32.113Z,95636
2017-07-22T21:14:08.443Z,95618
2017-07-22T21:16:43.304Z,95626
2017-07-22T21:19:18.151Z,95634
2017-07-22T21:21:53.348Z,95647
2017-07-22T21:24:28.319Z,95648
2017-07-22T21:27:03.770Z,95646
2017-07-22T21:29:39.063Z,95648
2017-07-22T21:32:15.139Z,95640
2017-07-22T21:34:50.274Z,95644
2017-07-22T21:37:25.216Z,95642
2017-07-22T21:40:00.372Z,95635
2017-07-22T21:42:35.756Z,95639
2017-07-22T21:45:10.678Z,95650
2017-07-22T21:47:46.937Z,95653
2017-07-22T21:50:22.048Z,95642
2017-07-22T21:52:57.351Z,95657
2017-07-22T21:55:32.256Z,95659
2017-07-22T21:58:08.491Z,95649
2017-07-22T22:00:44.238Z,95646
2017-07-22T22:03:20.586Z,95642
2017-07-22T22:05:56.479Z,95657
2017-07-22T22:08:31.533Z,95660
2017-07-22T22:11:06.505Z,95650
2017-07-22T22:13:41.410Z,95652
2017-07-22T22:16:16.310Z,95659
2017-07-22T22:18:51.282Z,95661
2017-07-22T22:21:26.256Z,95671
2017-07-22T22:24:02.262Z,95678
2017-07-22T22:26:37.014Z,95692
2017-07-22T22:29:11.870Z,95704
2017-07-22T22:31:46.792Z,95704
2017-07-22T22:34:21.683Z,95711
2017-07-22T22:36:59.928Z,95720
2017-07-22T22:39:34.706Z,95711
2017-07-22T22:42:09.879Z,95718
2017-07-22T22:44:44.732Z,95723
2017-07-22T22:47:24.717Z,95716
2017-07-22T22:50:01.860Z,95711
2017-07-22T22:52:36.687Z,95709
2017-07-22T22:55:11.531Z,95717
2017-07-22T22:57:46.323Z,95714
2017-07-22T23:00:22.247Z,95722
2017-07-22T23:02:57.319Z,95723
2017-07-22T23:05:32.116Z,95770
2017-07-22T23:08:06.911Z,95717
2017-07-22T23:10:41.796Z,95724
2017-07-22T23:13:16.767Z,95721
2017-07-22T23:15:51.715Z,95719
2017-07-22T23:18:27.243Z,95723
2017-07-22T23:21:03.379Z,95754
2017-07-22T23:23:38.293Z,95738
2017-07-22T23:26:13.222Z,95739
2017-07-22T23:28:48.852Z,95733
2017-07-22T23:31:23.770Z,95739
2017-07-22T23:33:58.688Z,95742
2017-07-22T23:36:33.642Z,95741
2017-07-22T23:39:09.319Z,95737
2017-07-22T23:41:44.419Z,95736
2017-07-22T23:44:19.263Z,95734
2017-07-22T23:46:54.196Z,95741
2017-07-22T23:49:29.264Z,95738
2017-07-22T23:52:04.275Z,95750
2017-07-22T23:54:39.189Z,95751
2017-07-22T23:57:14.971Z,95753
2017-07-22T23:59:49.931Z,95753
